Time;durP1;ratioP1;P1;durP2;ratioP2;P2;SDS_P1;SDS_P2;PMS_P1;PMS_P2;Temp;Humidity;BMP_temperature;BMP_pressure;BME280_temperature;BME280_humidity;BME280_pressure;Samples;Min_cycle;Max_cycle;Signal;HPM_P1;HPM_P2
2022/04/03 00:01:11;;;;;;;10.88;5.70;;;;;;;;;;4998863;28;20053;-85
2022/04/03 00:03:37;;;;;;;10.23;6.13;;;;;;;;;;4985885;28;20026;-86
2022/04/03 00:06:03;;;;;;;9.95;5.72;;;;;;;;;;4998100;28;20081;-85
2022/04/03 00:08:31;;;;;;;9.90;5.32;;;;;;;;;;4998002;28;20030;-84
2022/04/03 00:10:57;;;;;;;10.77;5.72;;;;;;;;;;4980862;28;20117;-84
2022/04/03 00:13:23;;;;;;;11.02;5.68;;;;;;;;;;4997809;28;20026;-84
2022/04/03 00:15:49;;;;;;;7.60;5.03;;;;;;;;;;4980380;28;20560;-84
2022/04/03 00:18:16;;;;;;;7.40;5.57;;;;;;;;;;4998450;28;20034;-84
2022/04/03 00:20:42;;;;;;;10.65;5.95;;;;;;;;;;4997030;28;20028;-85
2022/04/03 00:23:08;;;;;;;8.32;5.28;;;;;;;;;;4979568;28;20030;-82
2022/04/03 00:25:35;;;;;;;8.80;5.78;;;;;;;;;;4979683;28;20026;-83
2022/04/03 00:28:01;;;;;;;8.43;5.70;;;;;;;;;;4979863;28;20031;-82
2022/04/03 00:30:27;;;;;;;9.95;5.25;;;;;;;;;;4997933;28;20184;-83
2022/04/03 00:32:53;;;;;;;8.25;5.93;;;;;;;;;;4980787;28;20554;-83
2022/04/03 00:35:20;;;;;;;8.73;5.97;;;;;;;;;;4998326;28;20046;-84
2022/04/03 00:37:46;;;;;;;7.65;5.40;;;;;;;;;;4998187;28;20029;-83
2022/04/03 00:40:13;;;;;;;7.68;4.93;;;;;;;;;;4980463;28;20030;-83
2022/04/03 00:42:39;;;;;;;7.45;5.25;;;;;;;;;;4998265;28;20406;-83
2022/04/03 00:45:06;;;;;;;12.07;5.95;;;;;;;;;;4979743;28;20500;-83
2022/04/03 00:47:32;;;;;;;12.27;5.63;;;;;;;;;;4997387;28;20494;-84
2022/04/03 00:49:58;;;;;;;10.07;5.78;;;;;;;;;;4979015;28;20030;-84
2022/04/03 00:52:24;;;;;;;8.60;5.78;;;;;;;;;;4997513;28;20105;-83
2022/04/03 00:54:51;;;;;;;9.95;5.90;;;;;;;;;;4996806;28;20054;-84
2022/04/03 00:57:17;;;;;;;8.63;5.00;;;;;;;;;;4978226;28;20502;-83
2022/04/03 00:59:44;;;;;;;12.70;5.55;;;;;;;;;;4977589;28;20135;-83
2022/04/03 01:02:10;;;;;;;8.75;5.22;;;;;;;;;;4977514;28;20027;-83
2022/04/03 01:04:39;;;;;;;8.02;5.40;;;;;;;;;;4958881;28;20027;-83
2022/04/03 01:07:06;;;;;;;8.00;5.60;;;;;;;;;;4976067;28;20443;-84
2022/04/03 01:09:32;;;;;;;7.78;5.25;;;;;;;;;;4975805;28;20029;-83
2022/04/03 01:11:58;;;;;;;7.65;5.10;;;;;;;;;;4994475;28;20081;-82
2022/04/03 01:14:34;;;;;;;6.85;5.25;;;;;;;;;;4978833;28;20027;-82
2022/04/03 01:17:00;;;;;;;8.05;5.03;;;;;;;;;;4996934;28;20081;-83
2022/04/03 01:19:26;;;;;;;12.65;5.07;;;;;;;;;;4996444;28;20451;-83
2022/04/03 01:21:52;;;;;;;10.32;5.40;;;;;;;;;;4977722;28;20022;-83
2022/04/03 01:24:19;;;;;;;9.15;5.10;;;;;;;;;;4978356;28;20459;-83
2022/04/03 01:26:45;;;;;;;7.90;5.10;;;;;;;;;;4996341;28;20053;-84
2022/04/03 01:29:11;;;;;;;8.90;5.10;;;;;;;;;;4996857;28;20023;-84
2022/04/03 01:31:37;;;;;;;9.48;5.40;;;;;;;;;;4998487;28;20639;-84
2022/04/03 01:34:03;;;;;;;8.30;5.35;;;;;;;;;;4980556;28;20027;-84
2022/04/03 01:36:29;;;;;;;8.23;4.85;;;;;;;;;;4998079;28;20027;-84
2022/04/03 01:38:55;;;;;;;9.65;5.68;;;;;;;;;;4998274;28;20092;-83
2022/04/03 01:41:21;;;;;;;9.48;5.35;;;;;;;;;;4979636;28;20113;-84
2022/04/03 01:43:48;;;;;;;8.30;5.32;;;;;;;;;;4998048;28;20034;-84
2022/04/03 01:46:14;;;;;;;13.85;6.07;;;;;;;;;;4995827;28;20030;-82
2022/04/03 01:48:40;;;;;;;8.07;5.10;;;;;;;;;;4977996;28;20022;-84
2022/04/03 01:51:06;;;;;;;9.32;5.50;;;;;;;;;;4977689;28;20117;-84
2022/04/03 01:53:32;;;;;;;12.70;5.43;;;;;;;;;;4996056;28;20153;-85
2022/04/03 01:56:03;;;;;;;9.10;4.70;;;;;;;;;;4981150;28;20030;-84
2022/04/03 01:58:29;;;;;;;7.13;5.20;;;;;;;;;;4996176;28;20099;-83
2022/04/03 02:00:56;;;;;;;9.45;5.45;;;;;;;;;;4995746;28;20034;-83
2022/04/03 02:03:22;;;;;;;11.98;6.00;;;;;;;;;;4978484;28;20058;-83
2022/04/03 02:05:48;;;;;;;8.52;5.53;;;;;;;;;;4995745;28;20030;-83
2022/04/03 02:08:14;;;;;;;8.40;5.35;;;;;;;;;;4994880;28;20056;-83
2022/04/03 02:10:40;;;;;;;9.52;5.32;;;;;;;;;;5021945;23;20049;-85
2022/04/03 02:13:06;;;;;;;8.75;5.32;;;;;;;;;;4996172;28;20026;-84
2022/04/03 02:15:32;;;;;;;13.57;5.57;;;;;;;;;;5028092;28;20606;-84
2022/04/03 02:17:59;;;;;;;7.30;5.03;;;;;;;;;;5024053;28;20029;-83
2022/04/03 02:20:26;;;;;;;10.35;5.20;;;;;;;;;;5028763;28;20053;-85
2022/04/03 02:22:55;;;;;;;14.20;5.40;;;;;;;;;;5028748;28;20086;-84
2022/04/03 02:25:21;;;;;;;8.65;4.82;;;;;;;;;;5022077;28;20030;-84
2022/04/03 02:27:48;;;;;;;7.22;4.95;;;;;;;;;;5004964;28;20036;-84
2022/04/03 02:30:15;;;;;;;8.70;5.45;;;;;;;;;;5023096;28;20022;-84
2022/04/03 02:32:42;;;;;;;8.75;5.25;;;;;;;;;;5009004;28;20084;-86
2022/04/03 02:35:09;;;;;;;8.40;5.05;;;;;;;;;;4990441;28;20026;-84
2022/04/03 02:37:35;;;;;;;7.25;5.18;;;;;;;;;;5007545;28;20019;-85
2022/04/03 02:40:03;;;;;;;6.68;5.03;;;;;;;;;;4986158;28;20375;-83
2022/04/03 02:42:29;;;;;;;7.38;4.78;;;;;;;;;;5003187;28;20074;-85
2022/04/03 02:44:55;;;;;;;8.40;5.00;;;;;;;;;;5000224;28;20026;-85
2022/04/03 02:47:22;;;;;;;7.10;4.72;;;;;;;;;;5022719;28;20099;-85
2022/04/03 02:49:50;;;;;;;10.32;4.65;;;;;;;;;;5019992;28;20030;-85
2022/04/03 02:52:16;;;;;;;6.47;5.03;;;;;;;;;;5003335;28;20022;-84
2022/04/03 02:54:42;;;;;;;9.02;5.10;;;;;;;;;;5002772;28;20022;-85
2022/04/03 02:57:08;;;;;;;9.13;5.18;;;;;;;;;;4984816;28;20058;-84
2022/04/03 02:59:34;;;;;;;8.05;5.30;;;;;;;;;;5003720;28;20041;-84
2022/04/03 03:02:00;;;;;;;8.18;5.20;;;;;;;;;;4987663;28;20394;-85
2022/04/03 03:04:26;;;;;;;7.47;4.90;;;;;;;;;;5005553;28;20057;-85
2022/04/03 03:06:52;;;;;;;10.23;4.93;;;;;;;;;;4988049;28;20030;-86
2022/04/03 03:09:19;;;;;;;8.50;5.55;;;;;;;;;;4987390;28;20049;-85
2022/04/03 03:11:45;;;;;;;7.93;4.93;;;;;;;;;;5005337;28;20025;-85
2022/04/03 03:14:11;;;;;;;6.82;4.70;;;;;;;;;;4986999;28;20022;-83
2022/04/03 03:16:37;;;;;;;7.55;5.72;;;;;;;;;;5004261;28;20026;-83
2022/04/03 03:19:03;;;;;;;8.13;5.13;;;;;;;;;;5007961;28;20048;-83
2022/04/03 03:21:30;;;;;;;9.85;5.20;;;;;;;;;;5003864;28;20758;-83
2022/04/03 03:23:56;;;;;;;10.32;5.40;;;;;;;;;;5002949;28;20639;-82
2022/04/03 03:26:22;;;;;;;7.93;4.93;;;;;;;;;;4983705;28;20030;-82
2022/04/03 03:28:48;;;;;;;5.40;4.38;;;;;;;;;;5002737;28;20027;-83
2022/04/03 03:31:14;;;;;;;8.07;4.82;;;;;;;;;;5002804;28;20022;-82
2022/04/03 03:33:40;;;;;;;9.63;5.63;;;;;;;;;;5002585;28;20057;-82
2022/04/03 03:36:09;;;;;;;7.68;4.82;;;;;;;;;;5007700;28;20503;-83
2022/04/03 03:38:35;;;;;;;6.88;5.20;;;;;;;;;;5006714;28;20030;-84
2022/04/03 03:41:01;;;;;;;7.47;5.35;;;;;;;;;;5008034;28;20041;-83
2022/04/03 03:43:27;;;;;;;9.05;5.38;;;;;;;;;;5007897;28;20061;-83
2022/04/03 03:45:53;;;;;;;8.50;5.05;;;;;;;;;;5007758;28;20027;-83
2022/04/03 03:48:19;;;;;;;12.13;5.78;;;;;;;;;;4989944;28;20030;-84
2022/04/03 03:50:45;;;;;;;9.85;5.43;;;;;;;;;;5007919;28;20451;-83
2022/04/03 03:53:11;;;;;;;7.55;4.93;;;;;;;;;;5007403;28;20023;-83
2022/04/03 03:55:37;;;;;;;6.55;5.00;;;;;;;;;;5006300;28;20032;-85
2022/04/03 03:58:04;;;;;;;7.50;4.95;;;;;;;;;;5006602;28;20037;-84
2022/04/03 04:00:30;;;;;;;10.07;5.05;;;;;;;;;;5007046;28;20030;-84
2022/04/03 04:02:57;;;;;;;10.60;5.53;;;;;;;;;;5007843;28;20042;-82
2022/04/03 04:05:23;;;;;;;6.75;5.40;;;;;;;;;;4988739;28;20034;-84
2022/04/03 04:07:49;;;;;;;9.13;5.13;;;;;;;;;;5006595;28;20031;-83
2022/04/03 04:10:16;;;;;;;8.82;5.53;;;;;;;;;;4988244;28;20022;-82
2022/04/03 04:12:44;;;;;;;12.93;6.07;;;;;;;;;;5006554;28;20028;-84
2022/04/03 04:15:11;;;;;;;8.85;4.80;;;;;;;;;;5006408;28;20022;-83
2022/04/03 04:17:38;;;;;;;10.23;5.32;;;;;;;;;;5010562;28;20030;-84
2022/04/03 04:20:07;;;;;;;8.23;5.30;;;;;;;;;;5005739;28;20072;-83
2022/04/03 04:22:33;;;;;;;10.25;6.03;;;;;;;;;;5006305;28;20026;-84
2022/04/03 04:24:59;;;;;;;10.25;6.10;;;;;;;;;;5005811;28;20019;-84
2022/04/03 04:27:25;;;;;;;10.05;5.30;;;;;;;;;;5005183;28;20026;-84
2022/04/03 04:29:51;;;;;;;10.70;5.30;;;;;;;;;;4988257;28;20034;-83
2022/04/03 04:32:17;;;;;;;10.10;5.15;;;;;;;;;;4987104;28;20027;-83
2022/04/03 04:34:43;;;;;;;9.35;5.45;;;;;;;;;;5004972;28;20037;-82
2022/04/03 04:37:09;;;;;;;10.25;4.75;;;;;;;;;;5005503;28;20030;-83
2022/04/03 04:39:35;;;;;;;8.68;5.22;;;;;;;;;;4987184;28;20033;-80
2022/04/03 04:42:01;;;;;;;8.95;4.88;;;;;;;;;;4988664;28;20034;-82
2022/04/03 04:44:27;;;;;;;6.82;4.85;;;;;;;;;;4987866;28;20052;-81
2022/04/03 04:46:53;;;;;;;13.40;4.97;;;;;;;;;;5003844;28;20077;-84
2022/04/03 04:49:19;;;;;;;9.82;5.07;;;;;;;;;;4983193;28;20037;-83
2022/04/03 04:51:45;;;;;;;9.77;5.43;;;;;;;;;;5003125;28;20423;-84
2022/04/03 04:54:11;;;;;;;7.30;4.97;;;;;;;;;;5003679;28;20053;-84
2022/04/03 04:56:37;;;;;;;8.45;5.28;;;;;;;;;;4984426;28;20030;-84
2022/04/03 04:59:03;;;;;;;8.65;5.30;;;;;;;;;;5002006;28;20046;-84
2022/04/03 05:01:29;;;;;;;7.90;4.32;;;;;;;;;;5002636;28;20061;-84
2022/04/03 05:03:55;;;;;;;7.78;5.18;;;;;;;;;;4985109;28;20022;-83
2022/04/03 05:06:23;;;;;;;11.02;5.38;;;;;;;;;;5005665;28;20397;-83
2022/04/03 05:08:50;;;;;;;8.40;5.45;;;;;;;;;;4987835;28;20100;-83
2022/04/03 05:11:16;;;;;;;7.10;5.18;;;;;;;;;;5005274;28;20030;-83
2022/04/03 05:13:42;;;;;;;12.73;5.35;;;;;;;;;;4987080;28;20046;-83
2022/04/03 05:16:08;;;;;;;7.20;5.05;;;;;;;;;;5005983;28;20034;-83
2022/04/03 05:18:35;;;;;;;6.88;4.88;;;;;;;;;;5008866;28;20518;-83
2022/04/03 05:21:02;;;;;;;9.27;4.53;;;;;;;;;;5004823;28;20100;-82
2022/04/03 05:23:28;;;;;;;6.68;4.82;;;;;;;;;;5005634;28;20034;-83
2022/04/03 05:25:54;;;;;;;8.23;4.68;;;;;;;;;;4987269;28;20033;-81
2022/04/03 05:28:21;;;;;;;6.20;4.82;;;;;;;;;;5005158;28;20030;-83
2022/04/03 05:30:47;;;;;;;7.68;5.25;;;;;;;;;;5004605;28;20065;-82
2022/04/03 05:33:14;;;;;;;7.03;4.63;;;;;;;;;;4987045;28;20026;-83
2022/04/03 05:35:40;;;;;;;7.63;5.05;;;;;;;;;;5004824;28;20038;-82
2022/04/03 05:38:06;;;;;;;7.75;4.93;;;;;;;;;;4987151;28;20042;-83
2022/04/03 05:40:32;;;;;;;6.53;4.68;;;;;;;;;;5004830;28;20429;-82
2022/04/03 05:42:59;;;;;;;10.27;5.47;;;;;;;;;;4971701;28;20054;-83
2022/04/03 05:45:26;;;;;;;9.82;4.93;;;;;;;;;;4985988;28;20046;-82
2022/04/03 05:47:53;;;;;;;8.15;5.18;;;;;;;;;;5003531;28;20036;-83
2022/04/03 05:50:19;;;;;;;15.35;5.78;;;;;;;;;;4986681;28;20049;-81
2022/04/03 05:52:45;;;;;;;10.30;4.82;;;;;;;;;;4986918;28;20037;-82
2022/04/03 05:55:11;;;;;;;6.85;4.57;;;;;;;;;;4986968;28;20026;-82
2022/04/03 05:57:37;;;;;;;10.90;5.15;;;;;;;;;;4986719;28;20018;-81
2022/04/03 06:00:07;;;;;;;7.88;4.68;;;;;;;;;;4979811;28;20023;-82
2022/04/03 06:02:42;;;;;;;9.55;5.70;;;;;;;;;;4975645;28;20430;-82
2022/04/03 06:05:08;;;;;;;8.65;4.97;;;;;;;;;;4977613;28;20019;-82
2022/04/03 06:07:34;;;;;;;7.13;5.10;;;;;;;;;;4997746;28;20030;-83
2022/04/03 06:10:00;;;;;;;6.68;5.05;;;;;;;;;;5002126;28;20041;-82
2022/04/03 06:12:26;;;;;;;7.43;4.80;;;;;;;;;;4978924;28;20525;-83
2022/04/03 06:14:52;;;;;;;7.95;4.97;;;;;;;;;;4994637;28;20090;-82
2022/04/03 06:17:18;;;;;;;7.93;4.60;;;;;;;;;;5003572;28;20029;-83
2022/04/03 06:19:44;;;;;;;8.90;4.70;;;;;;;;;;5005930;28;20084;-84
2022/04/03 06:22:10;;;;;;;6.80;4.30;;;;;;;;;;5005931;28;20026;-83
2022/04/03 06:24:36;;;;;;;7.35;5.18;;;;;;;;;;5005158;28;20409;-85
2022/04/03 06:27:02;;;;;;;7.05;4.68;;;;;;;;;;5004201;28;20034;-84
2022/04/03 06:29:29;;;;;;;7.85;5.05;;;;;;;;;;5003936;28;20101;-84
2022/04/03 06:31:55;;;;;;;10.05;5.28;;;;;;;;;;5003021;28;20038;-84
2022/04/03 06:34:21;;;;;;;6.43;4.55;;;;;;;;;;5004464;28;20030;-83
2022/04/03 06:36:47;;;;;;;10.98;6.03;;;;;;;;;;5003744;28;20038;-81
2022/04/03 06:39:13;;;;;;;11.90;5.30;;;;;;;;;;5004011;28;20508;-84
2022/04/03 06:41:39;;;;;;;8.13;5.05;;;;;;;;;;5003762;28;20034;-84
2022/04/03 06:44:05;;;;;;;10.75;5.47;;;;;;;;;;5003666;28;20085;-84
2022/04/03 06:46:32;;;;;;;7.88;4.97;;;;;;;;;;4996610;28;20061;-84
2022/04/03 06:48:58;;;;;;;9.93;5.38;;;;;;;;;;5006879;28;20057;-84
2022/04/03 06:51:24;;;;;;;5.95;4.82;;;;;;;;;;4988434;28;20022;-83
2022/04/03 06:53:51;;;;;;;7.85;5.40;;;;;;;;;;4972863;28;20034;-82
2022/04/03 06:56:20;;;;;;;8.88;5.10;;;;;;;;;;4995377;28;20406;-81
2022/04/03 06:58:46;;;;;;;10.07;6.07;;;;;;;;;;4987701;28;20446;-82
2022/04/03 07:01:12;;;;;;;10.90;4.85;;;;;;;;;;4987454;28;20141;-81
2022/04/03 07:03:38;;;;;;;6.63;4.55;;;;;;;;;;5003709;28;20034;-81
2022/04/03 07:06:05;;;;;;;9.23;5.15;;;;;;;;;;4998442;28;20042;-81
2022/04/03 07:08:31;;;;;;;9.23;5.22;;;;;;;;;;4985234;28;20034;-82
2022/04/03 07:10:58;;;;;;;7.72;4.20;;;;;;;;;;5003541;28;20023;-83
2022/04/03 07:13:23;;;;;;;6.88;4.75;;;;;;;;;;4987063;28;20502;-83
2022/04/03 07:15:50;;;;;;;7.88;5.10;;;;;;;;;;5005482;28;20030;-83
2022/04/03 07:18:16;;;;;;;8.65;4.50;;;;;;;;;;5011683;28;20041;-83
2022/04/03 07:20:43;;;;;;;6.18;4.15;;;;;;;;;;5008140;28;20026;-83
2022/04/03 07:23:08;;;;;;;8.85;4.32;;;;;;;;;;5007543;28;20038;-83
2022/04/03 07:25:34;;;;;;;7.95;4.90;;;;;;;;;;5010270;28;20030;-83
2022/04/03 07:28:00;;;;;;;8.25;5.35;;;;;;;;;;4990473;28;20045;-83
2022/04/03 07:30:26;;;;;;;8.98;4.90;;;;;;;;;;5008471;28;20450;-84
2022/04/03 07:32:52;;;;;;;8.20;4.90;;;;;;;;;;5007100;28;20022;-84
2022/04/03 07:35:18;;;;;;;6.63;4.72;;;;;;;;;;5005672;28;20167;-84
2022/04/03 07:37:44;;;;;;;9.10;4.65;;;;;;;;;;4989942;28;20018;-84
2022/04/03 07:40:11;;;;;;;8.93;4.70;;;;;;;;;;5005099;28;20025;-84
2022/04/03 07:42:39;;;;;;;7.25;4.60;;;;;;;;;;4987832;28;20403;-82
2022/04/03 07:45:05;;;;;;;7.95;4.85;;;;;;;;;;5004377;28;20022;-84
2022/04/03 07:47:31;;;;;;;8.55;4.80;;;;;;;;;;5002642;28;20491;-81
2022/04/03 07:49:58;;;;;;;5.80;4.43;;;;;;;;;;5002489;28;20064;-82
2022/04/03 07:52:24;;;;;;;7.65;4.50;;;;;;;;;;5000568;28;20441;-83
2022/04/03 07:54:50;;;;;;;9.52;4.20;;;;;;;;;;4983230;28;20030;-83
2022/04/03 07:57:19;;;;;;;10.23;5.28;;;;;;;;;;5001577;28;20026;-84
2022/04/03 07:59:46;;;;;;;9.45;4.72;;;;;;;;;;5002606;28;20045;-83
2022/04/03 08:02:13;;;;;;;8.38;5.60;;;;;;;;;;5005937;28;20427;-84
2022/04/03 08:04:39;;;;;;;8.27;4.75;;;;;;;;;;4991022;28;20027;-85
2022/04/03 08:07:05;;;;;;;7.10;4.95;;;;;;;;;;4990816;28;20065;-83
2022/04/03 08:09:31;;;;;;;6.50;4.10;;;;;;;;;;5006879;28;20091;-85
2022/04/03 08:11:57;;;;;;;5.75;4.30;;;;;;;;;;5009513;28;20022;-84
2022/04/03 08:14:23;;;;;;;6.72;3.88;;;;;;;;;;4985481;28;20046;-85
2022/04/03 08:16:49;;;;;;;7.53;4.53;;;;;;;;;;5005240;28;20030;-85
2022/04/03 08:19:16;;;;;;;6.65;4.32;;;;;;;;;;5021527;28;20037;-85
2022/04/03 08:21:43;;;;;;;7.93;4.15;;;;;;;;;;5027071;28;20022;-84
2022/04/03 08:24:08;;;;;;;5.75;3.97;;;;;;;;;;4991983;28;20026;-86
2022/04/03 08:26:35;;;;;;;7.05;4.32;;;;;;;;;;5004501;28;20041;-86
2022/04/03 08:29:01;;;;;;;6.90;4.70;;;;;;;;;;5006427;28;20049;-85
2022/04/03 08:31:28;;;;;;;6.30;3.80;;;;;;;;;;5006114;28;20026;-86
2022/04/03 08:33:54;;;;;;;8.82;5.15;;;;;;;;;;4989168;28;20026;-86
2022/04/03 08:36:20;;;;;;;7.43;3.90;;;;;;;;;;4988793;28;20022;-86
2022/04/03 08:38:46;;;;;;;5.57;4.35;;;;;;;;;;5008275;28;20037;-85
2022/04/03 08:41:12;;;;;;;9.15;3.97;;;;;;;;;;5008209;28;20027;-86
2022/04/03 08:43:40;;;;;;;7.65;4.13;;;;;;;;;;4995665;28;20030;-85
2022/04/03 08:46:07;;;;;;;7.13;4.47;;;;;;;;;;5010971;28;20058;-85
2022/04/03 08:48:33;;;;;;;11.82;4.45;;;;;;;;;;5007803;28;20170;-86
2022/04/03 08:51:02;;;;;;;7.18;4.47;;;;;;;;;;4990321;28;20054;-85
2022/04/03 08:53:30;;;;;;;7.30;3.97;;;;;;;;;;4990974;28;20022;-85
2022/04/03 08:55:56;;;;;;;6.05;4.05;;;;;;;;;;5008111;28;20057;-85
2022/04/03 08:58:22;;;;;;;5.13;3.75;;;;;;;;;;4990185;28;20033;-85
2022/04/03 09:00:48;;;;;;;7.05;4.63;;;;;;;;;;5002919;28;20033;-84
2022/04/03 09:03:14;;;;;;;8.30;3.90;;;;;;;;;;4985407;28;20113;-84
2022/04/03 09:05:41;;;;;;;5.38;3.47;;;;;;;;;;5002170;28;20034;-86
2022/04/03 09:08:08;;;;;;;8.80;6.18;;;;;;;;;;4983282;28;20514;-85
2022/04/03 09:10:35;;;;;;;6.00;3.63;;;;;;;;;;4983125;28;20064;-85
2022/04/03 09:13:01;;;;;;;9.68;3.67;;;;;;;;;;5000021;28;20030;-84
2022/04/03 09:15:28;;;;;;;9.52;4.00;;;;;;;;;;5000294;28;20026;-86
2022/04/03 09:17:55;;;;;;;5.65;3.20;;;;;;;;;;5003965;28;20023;-83
2022/04/03 09:20:23;;;;;;;7.85;4.20;;;;;;;;;;4999881;28;20479;-86
2022/04/03 09:22:50;;;;;;;7.88;3.90;;;;;;;;;;4983672;28;20033;-84
2022/04/03 09:25:17;;;;;;;7.97;4.13;;;;;;;;;;5000633;28;20038;-86
2022/04/03 09:27:50;;;;;;;6.78;3.70;;;;;;;;;;4983527;28;20121;-84
2022/04/03 09:30:17;;;;;;;3.80;3.40;;;;;;;;;;5000660;28;20022;-84
2022/04/03 09:32:51;;;;;;;4.32;3.40;;;;;;;;;;5000513;28;20174;-85
2022/04/03 09:35:18;;;;;;;4.53;3.30;;;;;;;;;;4983439;28;20019;-84
2022/04/03 09:38:02;;;;;;;3.22;2.92;;;;;;;;;;5000205;28;20030;-85
2022/04/03 09:40:32;;;;;;;5.78;3.08;;;;;;;;;;5000509;28;20492;-85
2022/04/03 09:43:16;;;;;;;7.05;3.25;;;;;;;;;;4983386;28;20072;-86
2022/04/03 09:45:47;;;;;;;6.32;3.65;;;;;;;;;;5000715;28;20376;-84
2022/04/03 09:48:23;;;;;;;5.40;3.30;;;;;;;;;;5000491;28;20093;-85
2022/04/03 09:50:59;;;;;;;5.22;3.40;;;;;;;;;;4982098;28;20041;-84
2022/04/03 09:53:26;;;;;;;5.78;3.67;;;;;;;;;;5000935;28;20030;-85
2022/04/03 09:55:52;;;;;;;5.60;3.75;;;;;;;;;;5000652;28;20057;-86
2022/04/03 09:58:18;;;;;;;4.85;3.47;;;;;;;;;;5001890;28;20034;-85
2022/04/03 10:00:44;;;;;;;4.55;2.88;;;;;;;;;;4999773;28;20026;-85
2022/04/03 10:03:11;;;;;;;4.97;3.50;;;;;;;;;;5000113;28;20026;-86
2022/04/03 10:05:37;;;;;;;4.28;3.17;;;;;;;;;;4999714;28;20498;-85
2022/04/03 10:08:04;;;;;;;3.80;3.15;;;;;;;;;;5000383;28;20030;-85
2022/04/03 10:10:31;;;;;;;5.38;3.17;;;;;;;;;;4981602;28;20026;-85
2022/04/03 10:12:57;;;;;;;6.22;2.95;;;;;;;;;;4996744;28;20022;-83
2022/04/03 10:15:24;;;;;;;3.97;3.03;;;;;;;;;;4996798;28;20023;-83
2022/04/03 10:17:50;;;;;;;5.95;3.22;;;;;;;;;;4983500;28;20030;-83
2022/04/03 10:20:16;;;;;;;4.35;3.03;;;;;;;;;;4979163;28;20075;-84
2022/04/03 10:22:48;;;;;;;5.40;2.55;;;;;;;;;;4979013;28;20041;-85
2022/04/03 10:25:15;;;;;;;4.50;2.70;;;;;;;;;;4997524;28;20034;-82
2022/04/03 10:27:44;;;;;;;3.30;2.70;;;;;;;;;;4980135;28;20486;-81
2022/04/03 10:30:10;;;;;;;3.50;2.88;;;;;;;;;;4998588;28;20030;-83
2022/04/03 10:32:36;;;;;;;6.20;2.85;;;;;;;;;;4979530;28;20018;-83
2022/04/03 10:35:04;;;;;;;6.10;3.03;;;;;;;;;;4996862;28;20113;-85
2022/04/03 10:37:30;;;;;;;4.97;3.30;;;;;;;;;;4979208;28;20034;-84
2022/04/03 10:40:02;;;;;;;5.95;3.13;;;;;;;;;;4997139;28;20039;-84
2022/04/03 10:42:30;;;;;;;5.10;2.92;;;;;;;;;;4999260;28;20034;-86
2022/04/03 10:45:14;;;;;;;2.95;2.67;;;;;;;;;;5007142;28;20085;-83
2022/04/03 10:47:40;;;;;;;6.15;3.70;;;;;;;;;;5005071;28;20065;-85
2022/04/03 10:50:07;;;;;;;6.05;2.90;;;;;;;;;;4986220;28;20454;-86
2022/04/03 10:52:39;;;;;;;7.35;3.28;;;;;;;;;;5004024;28;20042;-86
2022/04/03 10:55:17;;;;;;;9.10;3.45;;;;;;;;;;5002637;28;20042;-85
2022/04/03 10:57:43;;;;;;;6.07;2.97;;;;;;;;;;5002049;28;20113;-85
2022/04/03 11:00:15;;;;;;;4.13;2.63;;;;;;;;;;5001630;28;20034;-84
2022/04/03 11:02:42;;;;;;;6.60;3.35;;;;;;;;;;4983400;28;20027;-85
2022/04/03 11:05:26;;;;;;;5.88;3.13;;;;;;;;;;5001571;28;20034;-86
2022/04/03 11:07:52;;;;;;;5.55;4.00;;;;;;;;;;5000261;28;20058;-84
2022/04/03 11:10:37;;;;;;;3.47;2.92;;;;;;;;;;4999224;28;20034;-84
2022/04/03 11:13:08;;;;;;;7.72;3.30;;;;;;;;;;4982534;28;20088;-82
2022/04/03 11:15:43;;;;;;;4.07;3.30;;;;;;;;;;4981145;28;20438;-84
2022/04/03 11:18:27;;;;;;;7.03;3.20;;;;;;;;;;5003377;28;20062;-84
2022/04/03 11:21:09;;;;;;;5.22;3.10;;;;;;;;;;4980677;28;20058;-85
2022/04/03 11:23:55;;;;;;;3.47;2.50;;;;;;;;;;4998465;28;20062;-83
2022/04/03 11:26:21;;;;;;;2.58;2.38;;;;;;;;;;4997794;28;20102;-86
2022/04/03 11:28:47;;;;;;;4.07;2.75;;;;;;;;;;4997424;28;20467;-84
2022/04/03 11:31:14;;;;;;;3.88;3.00;;;;;;;;;;4997356;28;20087;-85
2022/04/03 11:33:40;;;;;;;3.72;2.58;;;;;;;;;;4979574;28;20391;-86
2022/04/03 11:36:07;;;;;;;3.78;2.65;;;;;;;;;;4978926;28;20034;-82
2022/04/03 11:38:44;;;;;;;3.55;2.33;;;;;;;;;;4996147;28;20049;-84
2022/04/03 11:41:14;;;;;;;6.35;2.88;;;;;;;;;;4996167;28;20465;-84
2022/04/03 11:43:41;;;;;;;5.72;2.53;;;;;;;;;;4997422;28;20030;-84
2022/04/03 11:46:07;;;;;;;4.35;2.47;;;;;;;;;;4978464;28;20133;-82
2022/04/03 11:48:34;;;;;;;3.17;2.50;;;;;;;;;;4978378;28;20026;-85
2022/04/03 11:51:04;;;;;;;4.30;2.88;;;;;;;;;;4996547;28;20085;-83
2022/04/03 11:53:31;;;;;;;4.90;3.00;;;;;;;;;;4996320;28;20599;-84
2022/04/03 11:55:57;;;;;;;3.67;2.40;;;;;;;;;;4997381;28;20022;-84
2022/04/03 11:58:32;;;;;;;4.43;2.47;;;;;;;;;;4999858;28;20086;-85
2022/04/03 12:00:58;;;;;;;4.68;3.00;;;;;;;;;;4999899;28;20030;-85
2022/04/03 12:03:28;;;;;;;2.30;2.10;;;;;;;;;;4982241;28;20165;-84
2022/04/03 12:06:10;;;;;;;2.42;2.00;;;;;;;;;;4999118;28;20054;-84
2022/04/03 12:08:42;;;;;;;4.18;2.33;;;;;;;;;;4998840;28;20525;-83
2022/04/03 12:11:15;;;;;;;2.20;1.90;;;;;;;;;;4980116;28;20035;-85
2022/04/03 12:13:41;;;;;;;2.53;1.92;;;;;;;;;;4981014;28;20058;-85
2022/04/03 12:16:08;;;;;;;3.90;2.13;;;;;;;;;;4981621;28;20494;-85
2022/04/03 12:18:49;;;;;;;2.85;2.55;;;;;;;;;;5001700;28;20598;-84
2022/04/03 12:21:15;;;;;;;2.38;2.17;;;;;;;;;;4997364;28;20029;-83
2022/04/03 12:23:59;;;;;;;3.22;2.45;;;;;;;;;;4997729;28;20090;-85
2022/04/03 12:26:26;;;;;;;3.45;2.35;;;;;;;;;;4979820;28;20045;-85
2022/04/03 12:28:52;;;;;;;2.40;2.00;;;;;;;;;;4980059;28;20034;-85
2022/04/03 12:31:17;;;;;;;2.35;2.15;;;;;;;;;;4980035;28;20023;-85
2022/04/03 12:33:44;;;;;;;2.33;2.05;;;;;;;;;;4979975;28;20026;-84
2022/04/03 12:36:10;;;;;;;2.10;1.90;;;;;;;;;;4979853;28;20027;-85
2022/04/03 12:38:36;;;;;;;5.13;1.90;;;;;;;;;;4996649;28;20064;-85
2022/04/03 12:41:03;;;;;;;4.03;1.90;;;;;;;;;;4997491;28;20359;-85
2022/04/03 12:43:42;;;;;;;6.28;2.05;;;;;;;;;;5018327;28;20034;-86
2022/04/03 12:46:08;;;;;;;2.78;2.50;;;;;;;;;;5008695;28;20088;-86
2022/04/03 12:48:35;;;;;;;2.45;1.83;;;;;;;;;;5008733;28;20030;-86
2022/04/03 12:51:10;;;;;;;3.05;2.75;;;;;;;;;;5001545;28;20045;-86
2022/04/03 12:53:48;;;;;;;2.67;1.90;;;;;;;;;;4993512;28;20022;-85
2022/04/03 12:56:15;;;;;;;4.97;1.92;;;;;;;;;;4987824;28;20057;-86
2022/04/03 12:58:43;;;;;;;3.00;2.42;;;;;;;;;;5007259;28;20022;-87
2022/04/03 13:01:12;;;;;;;2.47;1.98;;;;;;;;;;5006695;28;20026;-87
2022/04/03 13:03:38;;;;;;;4.13;2.35;;;;;;;;;;5006005;28;20030;-85
2022/04/03 13:06:06;;;;;;;3.40;1.95;;;;;;;;;;4987903;28;20406;-85
2022/04/03 13:08:54;;;;;;;4.55;1.80;;;;;;;;;;5004663;28;20037;-86
2022/04/03 13:11:32;;;;;;;5.22;2.15;;;;;;;;;;5005703;28;20034;-85
2022/04/03 13:14:13;;;;;;;3.70;2.15;;;;;;;;;;5004251;28;20101;-85
2022/04/03 13:16:40;;;;;;;6.20;2.30;;;;;;;;;;5003555;28;20086;-84
2022/04/03 13:19:06;;;;;;;3.33;2.15;;;;;;;;;;5007903;28;20034;-82
2022/04/03 13:21:36;;;;;;;2.88;1.90;;;;;;;;;;5002631;28;20023;-85
2022/04/03 13:24:02;;;;;;;3.80;1.60;;;;;;;;;;4985579;28;20037;-84
2022/04/03 13:26:28;;;;;;;3.13;1.63;;;;;;;;;;5002572;28;20110;-87
2022/04/03 13:28:54;;;;;;;6.72;2.70;;;;;;;;;;5002450;28;20026;-84
2022/04/03 13:31:20;;;;;;;3.42;2.15;;;;;;;;;;5001841;28;20068;-84
2022/04/03 13:33:46;;;;;;;3.35;2.05;;;;;;;;;;5001704;28;20030;-86
2022/04/03 13:36:12;;;;;;;2.10;1.70;;;;;;;;;;5001491;28;20023;-85
2022/04/03 13:38:38;;;;;;;3.65;2.03;;;;;;;;;;4999918;28;20026;-85
2022/04/03 13:41:04;;;;;;;5.30;2.03;;;;;;;;;;5000059;28;20056;-85
2022/04/03 13:43:30;;;;;;;6.07;2.10;;;;;;;;;;4982065;28;20022;-85
2022/04/03 13:45:56;;;;;;;3.80;1.85;;;;;;;;;;4999960;28;20104;-84
2022/04/03 13:48:24;;;;;;;2.75;1.70;;;;;;;;;;4998738;28;20050;-85
2022/04/03 13:50:50;;;;;;;2.10;1.75;;;;;;;;;;4980771;28;20122;-85
2022/04/03 13:53:16;;;;;;;4.47;1.90;;;;;;;;;;4998861;28;20026;-85
2022/04/03 13:55:42;;;;;;;4.97;1.85;;;;;;;;;;4980190;28;20022;-84
2022/04/03 13:58:08;;;;;;;2.20;1.70;;;;;;;;;;4998364;28;20037;-86
2022/04/03 14:00:34;;;;;;;2.03;1.50;;;;;;;;;;4979719;28;20065;-85
2022/04/03 14:03:00;;;;;;;2.67;1.90;;;;;;;;;;4997237;28;20033;-85
2022/04/03 14:05:26;;;;;;;17.08;7.13;;;;;;;;;;4997618;28;20502;-84
2022/04/03 14:07:52;;;;;;;4.55;2.10;;;;;;;;;;4978556;28;20050;-84
2022/04/03 14:10:18;;;;;;;3.13;2.00;;;;;;;;;;5012320;23;20089;-84
2022/04/03 14:12:44;;;;;;;2.38;1.55;;;;;;;;;;4993601;28;20046;-83
2022/04/03 14:15:10;;;;;;;2.42;1.67;;;;;;;;;;4976216;28;20108;-87
2022/04/03 14:17:36;;;;;;;2.45;1.58;;;;;;;;;;4993450;28;20018;-85
2022/04/03 14:20:02;;;;;;;2.15;1.63;;;;;;;;;;4993136;28;20487;-86
2022/04/03 14:22:28;;;;;;;4.63;1.83;;;;;;;;;;4993563;28;20030;-87
2022/04/03 14:24:54;;;;;;;4.43;1.70;;;;;;;;;;4975997;28;20185;-86
2022/04/03 14:27:21;;;;;;;3.50;1.70;;;;;;;;;;4975878;28;20042;-85
2022/04/03 14:29:47;;;;;;;5.78;2.10;;;;;;;;;;4976097;28;20038;-86
2022/04/03 14:32:13;;;;;;;2.88;1.70;;;;;;;;;;4993240;28;20114;-87
2022/04/03 14:34:39;;;;;;;2.40;1.80;;;;;;;;;;4976940;28;20316;-86
2022/04/03 14:37:05;;;;;;;2.33;1.67;;;;;;;;;;4975692;28;20030;-86
2022/04/03 14:39:31;;;;;;;3.17;1.88;;;;;;;;;;4993446;28;20031;-86
2022/04/03 14:41:57;;;;;;;2.55;2.05;;;;;;;;;;4993929;28;20344;-85